Time;durP1;ratioP1;P1;durP2;ratioP2;P2;SDS_P1;SDS_P2;PMS_P1;PMS_P2;Temp;Humidity;BMP_temperature;BMP_pressure;BME280_temperature;BME280_humidity;BME280_pressure;Samples;Min_cycle;Max_cycle;Signal;HPM_P1;HPM_P2
2023/04/13 04:22:34;;;;;;;1.52;1.02;;;;;;;7.61;76.24;99154.88;5113290;27;20390;-67
2023/04/13 04:25:00;;;;;;;3.67;0.88;;;;;;;7.64;76.51;99149.25;5129161;27;20034;-67
2023/04/13 04:27:27;;;;;;;3.63;0.80;;;;;;;7.64;76.37;99159.03;5128753;27;20553;-66
2023/04/13 04:29:58;;;;;;;3.05;0.68;;;;;;;7.68;75.94;99155.81;5128930;28;20277;-67
2023/04/13 04:32:35;;;;;;;1.60;1.00;;;;;;;7.70;76.15;99159.13;5128996;28;20084;-66
2023/04/13 04:35:07;;;;;;;6.82;1.30;;;;;;;7.77;75.63;99168.00;5130291;27;20123;-66
2023/04/13 04:37:39;;;;;;;2.05;1.17;;;;;;;7.72;75.81;99166.88;5128616;27;20457;-66
2023/04/13 04:40:14;;;;;;;1.67;1.00;;;;;;;7.74;75.90;99171.00;5128740;27;20054;-66
2023/04/13 04:42:41;;;;;;;4.50;1.30;;;;;;;7.76;76.57;99163.72;5128860;27;20039;-66
2023/04/13 04:45:14;;;;;;;3.00;0.85;;;;;;;7.74;75.58;99168.34;5130106;27;20287;-66
2023/04/13 04:47:42;;;;;;;0.85;0.85;;;;;;;7.72;75.43;99167.72;5128567;28;20039;-66
2023/04/13 04:50:28;;;;;;;1.73;0.95;;;;;;;7.71;74.72;99171.38;5129967;28;20039;-66
2023/04/13 04:53:05;;;;;;;2.55;0.80;;;;;;;7.77;75.58;99178.59;5128513;28;20037;-68
2023/04/13 04:55:31;;;;;;;5.68;1.00;;;;;;;7.77;75.12;99169.84;5128515;28;20468;-66
2023/04/13 04:57:56;;;;;;;2.33;0.98;;;;;;;7.79;75.84;99173.94;5129480;27;20058;-67
2023/04/13 05:00:25;;;;;;;2.08;0.77;;;;;;;7.75;76.03;99167.34;5128380;28;20066;-66
2023/04/13 05:03:06;;;;;;;1.17;0.80;;;;;;;7.73;76.45;99179.97;5128359;28;20563;-67
2023/04/13 05:05:32;;;;;;;2.42;1.05;;;;;;;7.73;76.39;99177.31;5128289;27;20111;-67
2023/04/13 05:08:03;;;;;;;1.20;0.80;;;;;;;7.76;76.06;99174.31;5128087;28;20504;-67
2023/04/13 05:10:30;;;;;;;3.38;1.35;;;;;;;7.80;76.72;99175.56;5128253;28;20035;-67
2023/04/13 05:12:56;;;;;;;2.28;1.17;;;;;;;7.79;77.66;99175.75;5128195;28;20031;-66
2023/04/13 05:15:23;;;;;;;3.88;1.23;;;;;;;7.77;75.29;99181.25;5128338;28;20116;-66
2023/04/13 05:17:49;;;;;;;7.18;0.93;;;;;;;7.83;77.22;99185.84;5106375;27;20036;-66
2023/04/13 05:20:16;;;;;;;6.38;1.00;;;;;;;7.73;75.42;99169.34;5103634;28;20031;-66
2023/04/13 05:22:48;;;;;;;0.95;0.70;;;;;;;7.78;76.28;99176.78;5107158;28;20496;-66
2023/04/13 05:25:15;;;;;;;0.82;0.70;;;;;;;7.83;75.74;99185.00;5107419;28;20075;-59
2023/04/13 05:27:42;;;;;;;2.70;1.00;;;;;;;7.86;74.92;99190.75;5106839;27;20035;-64
2023/04/13 05:30:08;;;;;;;1.88;0.70;;;;;;;7.81;75.34;99177.22;5107036;28;20282;-64
2023/04/13 05:32:36;;;;;;;1.98;0.80;;;;;;;7.78;75.36;99180.25;5101137;28;20040;-64
2023/04/13 05:35:03;;;;;;;3.38;1.20;;;;;;;7.82;75.17;99184.19;5101716;28;20031;-66
2023/04/13 05:37:29;;;;;;;;;;;;;;;7.81;76.34;99184.34;5112109;28;20027;-63
2023/04/13 05:39:55;;;;;;;2.50;0.90;;;;;;;7.79;75.58;99191.66;5087939;28;20435;-63
2023/04/13 05:42:26;;;;;;;3.05;0.75;;;;;;;7.81;75.70;99195.78;5093612;28;20491;-64
2023/04/13 05:44:52;;;;;;;1.05;0.73;;;;;;;7.82;75.75;99201.91;5093430;28;20047;-64
2023/04/13 05:47:21;;;;;;;2.75;0.88;;;;;;;7.80;75.74;99198.63;5093143;28;20027;-65
2023/04/13 05:49:47;;;;;;;2.83;0.73;;;;;;;7.83;77.35;99207.03;5093416;28;20040;-64
2023/04/13 05:52:17;;;;;;;2.35;0.90;;;;;;;7.83;75.59;99220.31;5093317;28;20115;-64
2023/04/13 05:54:46;;;;;;;1.08;0.80;;;;;;;7.81;76.07;99221.47;5093207;28;20040;-64
2023/04/13 05:57:12;;;;;;;6.00;1.38;;;;;;;7.80;75.85;99222.47;5092964;28;20086;-64
2023/04/13 05:59:43;;;;;;;1.60;0.60;;;;;;;7.83;76.34;99225.59;5093166;28;20032;-63
2023/04/13 06:02:09;;;;;;;;;;;;;;;7.81;77.04;99235.53;5093566;28;20036;-65
2023/04/13 06:04:35;;;;;;;1.45;0.75;;;;;;;7.84;76.21;99248.47;5093151;28;20312;-64
2023/04/13 06:07:00;;;;;;;0.60;0.57;;;;;;;7.82;76.39;99245.16;5094145;28;20114;-64
2023/04/13 06:09:26;;;;;;;1.35;1.10;;;;;;;7.85;76.62;99246.63;5093006;28;20043;-64
2023/04/13 06:11:51;;;;;;;1.65;0.90;;;;;;;7.79;76.85;99261.44;5094246;28;20042;-65
2023/04/13 06:14:17;;;;;;;0.95;0.73;;;;;;;7.86;77.38;99270.31;5094214;28;20032;-65
2023/04/13 06:16:43;;;;;;;4.85;1.02;;;;;;;7.87;77.25;99271.94;5092786;28;20043;-64
2023/04/13 06:19:08;;;;;;;4.85;1.27;;;;;;;7.81;77.00;99266.53;5093977;28;20040;-64
2023/04/13 06:21:35;;;;;;;4.40;0.98;;;;;;;7.82;77.69;99271.69;5092608;28;20036;-64
2023/04/13 06:24:01;;;;;;;1.45;0.70;;;;;;;7.86;77.02;99274.78;5094021;28;20446;-64
2023/04/13 06:26:32;;;;;;;2.83;0.70;;;;;;;7.82;77.01;99268.19;5092702;28;20036;-64
2023/04/13 06:28:59;;;;;;;;;;;;;;;7.87;77.75;99265.81;5092686;28;20040;-64
2023/04/13 06:31:26;;;;;;;2.03;0.80;;;;;;;7.95;77.34;99263.09;5092517;28;19919;-65
2023/04/13 06:33:53;;;;;;;;;;;;;;;7.97;76.60;99265.59;5093135;28;20044;-65
2023/04/13 06:36:24;;;;;;;3.65;1.27;;;;;;;8.07;76.12;99259.00;5092479;28;19915;-65
2023/04/13 06:38:51;;;;;;;4.80;1.00;;;;;;;8.10;77.01;99266.63;5092163;28;20515;-64
2023/04/13 06:41:18;;;;;;;0.70;0.50;;;;;;;8.14;76.16;99256.44;5092288;28;20028;-65
2023/04/13 06:43:45;;;;;;;1.65;0.93;;;;;;;8.16;75.27;99254.47;5091709;28;20052;-65
2023/04/13 06:46:33;;;;;;;1.65;0.80;;;;;;;8.22;75.89;99258.22;5092310;28;20047;-65
2023/04/13 06:49:05;;;;;;;1.95;0.80;;;;;;;8.24;76.00;99251.72;5091988;28;20044;-65
2023/04/13 06:51:32;;;;;;;2.60;0.95;;;;;;;8.32;76.12;99261.41;5092192;28;20411;-62
2023/04/13 06:53:58;;;;;;;2.97;1.88;;;;;;;8.43;75.80;99251.19;5092128;28;20519;-63
2023/04/13 06:56:24;;;;;;;3.95;1.23;;;;;;;8.45;74.20;99248.34;5092009;28;20032;-63
2023/04/13 06:58:50;;;;;;;2.95;1.13;;;;;;;8.46;76.22;99259.78;5092079;28;20047;-63
2023/04/13 07:01:16;;;;;;;1.95;0.70;;;;;;;8.55;75.47;99258.72;5091914;28;20050;-65
2023/04/13 07:03:42;;;;;;;2.22;0.93;;;;;;;8.53;75.17;99264.19;5092200;28;20109;-66
2023/04/13 07:06:08;;;;;;;2.60;1.13;;;;;;;8.54;73.75;99265.00;5091838;28;20048;-63
2023/04/13 07:08:35;;;;;;;3.67;1.15;;;;;;;8.57;74.57;99265.47;5091743;28;20051;-66
2023/04/13 07:11:01;;;;;;;2.50;1.00;;;;;;;8.49;73.86;99264.75;5091781;28;20028;-64
2023/04/13 07:13:37;;;;;;;2.00;0.82;;;;;;;8.52;73.59;99259.88;5091850;28;20040;-64
2023/04/13 07:16:07;;;;;;;4.40;1.38;;;;;;;8.54;75.12;99263.19;5091588;28;20135;-64
2023/04/13 07:18:35;;;;;;;2.88;0.82;;;;;;;8.56;73.24;99261.16;5091357;28;20508;-65
2023/04/13 07:21:00;;;;;;;2.85;0.77;;;;;;;8.54;72.61;99260.53;5091539;28;20079;-63
2023/04/13 07:23:32;;;;;;;1.77;0.80;;;;;;;8.65;75.20;99259.22;5091577;28;20035;-63
2023/04/13 07:26:00;;;;;;;2.25;0.80;;;;;;;8.95;74.51;99254.72;5091409;28;20040;-63
2023/04/13 07:28:27;;;;;;;3.65;1.13;;;;;;;9.27;74.17;99253.44;5091230;28;20028;-64
2023/04/13 07:30:55;;;;;;;;;;;;;;;9.44;71.73;99254.00;5091735;28;20075;-63
2023/04/13 07:33:21;;;;;;;2.72;1.45;;;;;;;9.50;70.88;99248.72;5091300;28;20297;-65
2023/04/13 07:35:53;;;;;;;2.40;1.05;;;;;;;9.55;68.79;99228.75;5091298;28;20040;-63
2023/04/13 07:38:20;;;;;;;0.88;0.70;;;;;;;9.66;70.45;99236.22;5091093;28;20051;-66
2023/04/13 07:40:46;;;;;;;3.55;1.10;;;;;;;9.91;70.30;99244.56;5091022;28;20036;-63
2023/04/13 07:43:12;;;;;;;3.55;0.75;;;;;;;10.03;67.11;99248.34;5091207;28;20043;-65
2023/04/13 07:45:41;;;;;;;1.15;0.85;;;;;;;10.04;66.30;99255.31;5091066;28;20036;-64
2023/04/13 07:48:06;;;;;;;0.68;0.60;;;;;;;10.19;65.29;99252.56;5092340;28;20063;-64
2023/04/13 07:50:42;;;;;;;1.30;0.70;;;;;;;10.36;66.10;99242.44;5091306;28;20123;-64
2023/04/13 07:53:11;;;;;;;1.58;1.13;;;;;;;10.56;66.71;99252.22;5091047;28;20024;-64
2023/04/13 07:55:37;;;;;;;1.63;0.60;;;;;;;10.77;64.87;99240.63;5090724;28;20032;-64
2023/04/13 07:58:04;;;;;;;4.55;1.33;;;;;;;10.64;63.10;99250.41;5090634;28;20081;-64
2023/04/13 08:00:30;;;;;;;1.98;0.93;;;;;;;10.77;63.97;99256.63;5090906;28;20035;-64
2023/04/13 08:02:58;;;;;;;2.25;0.57;;;;;;;10.67;61.46;99255.31;5090903;28;20032;-64
2023/04/13 08:05:25;;;;;;;4.55;1.20;;;;;;;10.81;64.78;99259.69;5091090;28;20032;-64
2023/04/13 08:07:51;;;;;;;7.55;1.08;;;;;;;10.74;63.73;99250.84;5090695;28;20047;-64
2023/04/13 08:10:17;;;;;;;3.83;1.20;;;;;;;10.73;63.38;99265.19;5090790;28;20060;-64
2023/04/13 08:12:43;;;;;;;1.90;0.80;;;;;;;10.45;65.58;99262.59;5092103;28;20105;-64
2023/04/13 08:15:09;;;;;;;1.17;0.73;;;;;;;10.48;65.96;99268.34;5090741;28;20047;-64
2023/04/13 08:17:35;;;;;;;2.40;1.00;;;;;;;10.20;70.96;99275.50;5091881;28;20036;-64
2023/04/13 08:20:01;;;;;;;2.65;1.00;;;;;;;9.87;76.50;99278.72;5090700;28;20100;-64
2023/04/13 08:22:27;;;;;;;1.35;1.00;;;;;;;9.52;82.92;99281.28;5091002;28;20115;-65
2023/04/13 08:24:53;;;;;;;3.30;0.85;;;;;;;9.23;84.90;99282.19;5090700;28;20445;-65
2023/04/13 08:27:19;;;;;;;2.97;0.70;;;;;;;8.73;86.40;99303.44;5090499;28;20081;-65
2023/04/13 08:29:45;;;;;;;4.07;0.98;;;;;;;8.45;92.16;99297.97;5090715;28;20487;-63
2023/04/13 08:32:11;;;;;;;2.55;0.80;;;;;;;8.52;94.08;99298.88;5091926;28;20469;-64
2023/04/13 08:34:37;;;;;;;1.88;1.10;;;;;;;8.41;97.81;99305.44;5090759;28;20115;-65
2023/04/13 08:37:02;;;;;;;3.95;0.98;;;;;;;8.36;94.99;99303.34;5090506;28;20036;-65
2023/04/13 08:39:32;;;;;;;6.25;0.85;;;;;;;8.46;95.27;99304.91;5090659;28;20031;-64
2023/04/13 08:41:58;;;;;;;4.25;1.15;;;;;;;8.32;96.09;99296.72;5090582;28;20032;-65
2023/04/13 08:44:28;;;;;;;2.80;1.42;;;;;;;8.49;92.67;99296.59;5090577;28;20031;-64
2023/04/13 08:46:53;;;;;;;3.45;1.23;;;;;;;8.51;94.11;99306.00;5090359;28;20036;-64
2023/04/13 08:49:26;;;;;;;3.78;0.90;;;;;;;8.50;96.47;99303.56;5090532;28;20122;-64
2023/04/13 08:52:10;;;;;;;2.05;1.08;;;;;;;8.45;93.58;99311.22;5091812;28;20101;-64
2023/04/13 08:54:38;;;;;;;4.07;1.75;;;;;;;8.57;95.04;99307.94;5090430;28;20085;-64
2023/04/13 08:57:10;;;;;;;7.25;1.55;;;;;;;8.69;94.32;99306.47;5090084;28;20027;-64
2023/04/13 08:59:40;;;;;;;2.15;1.02;;;;;;;8.74;93.54;99316.56;5090546;28;20043;-65
2023/04/13 09:02:07;;;;;;;4.18;0.82;;;;;;;8.80;94.08;99304.34;5091591;28;20036;-63
2023/04/13 09:04:41;;;;;;;8.35;1.60;;;;;;;9.01;96.72;99300.97;5090413;28;20036;-64
2023/04/13 09:07:07;;;;;;;5.65;1.30;;;;;;;9.18;96.77;99302.38;5090047;28;20036;-65
2023/04/13 09:09:37;;;;;;;1.98;1.05;;;;;;;9.58;96.18;99303.59;5077924;28;20188;-64
2023/04/13 09:12:03;;;;;;;3.20;1.03;;;;;;;9.68;90.76;99306.78;5095292;28;20036;-64
2023/04/13 09:14:30;;;;;;;3.20;1.30;;;;;;;9.67;91.47;99317.63;5095314;28;20270;-66
2023/04/13 09:16:56;;;;;;;1.38;0.70;;;;;;;9.83;93.50;99305.91;5093814;28;20040;-65
2023/04/13 09:19:33;;;;;;;5.22;0.65;;;;;;;10.13;94.08;99325.19;5094090;28;20032;-65
2023/04/13 09:22:13;;;;;;;3.20;1.35;;;;;;;10.38;92.34;99329.09;5093866;28;20123;-65
2023/04/13 09:24:39;;;;;;;0.82;0.70;;;;;;;10.74;92.55;99326.25;5095191;28;20508;-64
2023/04/13 09:27:05;;;;;;;1.75;0.63;;;;;;;11.00;84.63;99341.53;5094937;28;20056;-64
2023/04/13 09:29:31;;;;;;;1.65;0.50;;;;;;;10.92;82.73;99331.06;5095208;28;20063;-65
2023/04/13 09:31:56;;;;;;;4.55;1.10;;;;;;;10.86;86.25;99334.50;5094905;28;20043;-65
2023/04/13 09:34:28;;;;;;;2.58;0.95;;;;;;;10.86;82.71;99339.84;5095037;28;20040;-65
2023/04/13 09:36:53;;;;;;;4.43;1.00;;;;;;;10.80;82.75;99340.63;5094853;28;20132;-65
2023/04/13 09:39:26;;;;;;;1.90;1.00;;;;;;;11.10;83.22;99343.88;5094757;28;20131;-65
2023/04/13 09:41:53;;;;;;;1.20;0.90;;;;;;;11.26;84.89;99326.69;5094862;28;20066;-64
2023/04/13 09:44:21;;;;;;;3.65;1.05;;;;;;;11.25;80.49;99343.72;5094804;28;20035;-66
2023/04/13 09:46:59;;;;;;;2.80;1.02;;;;;;;11.62;82.59;99350.41;5094628;28;20036;-64
2023/04/13 09:49:39;;;;;;;1.83;1.02;;;;;;;11.66;77.29;99347.09;5094575;28;20039;-64
2023/04/13 09:52:08;;;;;;;2.92;1.00;;;;;;;11.58;81.47;99352.63;5094559;28;20040;-64
2023/04/13 09:54:34;;;;;;;1.92;1.05;;;;;;;11.95;78.08;99347.81;5094587;28;20047;-65
2023/04/13 09:56:59;;;;;;;3.30;1.13;;;;;;;12.35;77.40;99345.16;5094270;28;20031;-65
2023/04/13 09:59:26;;;;;;;4.57;1.25;;;;;;;12.34;74.37;99349.69;5094507;28;20052;-64
2023/04/13 10:01:53;;;;;;;3.25;1.48;;;;;;;12.98;71.07;99356.97;5094529;28;20036;-66
2023/04/13 10:04:19;;;;;;;3.35;0.90;;;;;;;13.35;69.67;99346.56;5094425;28;20067;-64
2023/04/13 10:06:47;;;;;;;2.63;0.90;;;;;;;13.89;69.90;99345.25;5094086;28;20442;-65
2023/04/13 10:09:14;;;;;;;4.55;1.05;;;;;;;14.19;64.53;99344.59;5094123;28;20374;-65
2023/04/13 10:11:49;;;;;;;2.97;0.70;;;;;;;13.83;59.50;99333.56;5094276;28;20040;-64
2023/04/13 10:14:26;;;;;;;1.52;0.80;;;;;;;13.91;60.33;99329.78;5094223;28;20541;-64
2023/04/13 10:17:25;;;;;;;1.38;0.65;;;;;;;13.87;61.24;99344.63;5094131;28;20039;-64
2023/04/13 10:19:53;;;;;;;2.30;0.90;;;;;;;13.61;59.68;99336.78;5094069;28;20036;-64
2023/04/13 10:22:21;;;;;;;2.45;0.80;;;;;;;13.20;59.51;99337.97;5094095;28;20451;-65
2023/04/13 10:24:47;;;;;;;1.00;0.82;;;;;;;12.64;62.28;99333.19;5093890;28;20039;-65
2023/04/13 10:27:19;;;;;;;2.10;0.80;;;;;;;12.48;63.08;99329.13;5093595;28;20058;-64
2023/04/13 10:29:46;;;;;;;1.08;0.63;;;;;;;12.25;63.86;99323.38;5093865;28;20488;-66
2023/04/13 10:32:25;;;;;;;2.07;0.80;;;;;;;11.92;67.04;99335.69;5093819;28;20036;-65
2023/04/13 10:34:52;;;;;;;3.03;0.90;;;;;;;11.61;67.51;99338.91;5093855;28;20036;-65
2023/04/13 10:37:20;;;;;;;1.73;0.90;;;;;;;12.12;67.88;99338.38;5093416;28;20075;-65
2023/04/13 10:39:46;;;;;;;3.85;0.90;;;;;;;12.07;67.16;99332.84;5093965;28;20058;-65
2023/04/13 10:42:12;;;;;;;3.22;1.08;;;;;;;11.71;66.86;99324.34;5093735;28;20024;-65
2023/04/13 10:44:52;;;;;;;2.70;0.93;;;;;;;11.61;68.11;99324.75;5093695;28;20054;-65
2023/04/13 10:47:21;;;;;;;2.53;1.00;;;;;;;11.51;68.41;99324.31;5093267;28;20036;-65
2023/04/13 10:49:49;;;;;;;4.38;0.93;;;;;;;11.95;67.18;99315.78;5093568;28;20032;-65
2023/04/13 10:52:15;;;;;;;2.90;0.75;;;;;;;12.68;67.60;99318.41;5093408;28;20067;-64
2023/04/13 10:54:42;;;;;;;1.38;0.73;;;;;;;12.88;65.53;99319.16;5093631;28;20060;-65
2023/04/13 10:57:09;;;;;;;3.25;1.05;;;;;;;13.05;63.58;99327.56;5093058;28;20039;-65
2023/04/13 10:59:42;;;;;;;2.03;0.82;;;;;;;13.58;61.23;99320.13;5093309;28;20046;-65
2023/04/13 11:02:13;;;;;;;2.60;0.80;;;;;;;14.57;62.20;99312.34;5093305;28;20028;-66
2023/04/13 11:04:43;;;;;;;2.38;0.90;;;;;;;15.03;54.47;99311.84;5093245;28;20075;-66
2023/04/13 11:07:16;;;;;;;2.58;0.82;;;;;;;15.20;54.05;99302.16;5075160;28;20044;-66
2023/04/13 11:09:46;;;;;;;1.65;0.93;;;;;;;15.37;53.79;99309.56;5092228;28;20539;-66
2023/04/13 11:12:13;;;;;;;2.50;1.58;;;;;;;15.26;55.08;99305.81;5093193;28;20032;-65
2023/04/13 11:14:38;;;;;;;2.13;0.63;;;;;;;14.91;52.09;99303.72;5093121;28;20032;-66
2023/04/13 11:17:12;;;;;;;2.20;0.80;;;;;;;14.65;53.29;99301.34;5092805;28;20047;-66
2023/04/13 11:19:50;;;;;;;2.22;0.70;;;;;;;13.83;55.24;99306.78;5093086;28;20598;-65
2023/04/13 11:22:18;;;;;;;2.38;0.70;;;;;;;13.22;56.72;99307.34;5092706;28;20093;-65
2023/04/13 11:24:44;;;;;;;3.42;0.80;;;;;;;12.77;60.56;99299.25;5092988;28;20122;-65
2023/04/13 11:27:23;;;;;;;2.05;1.00;;;;;;;12.89;64.13;99303.94;5092519;28;20032;-65
2023/04/13 11:30:06;;;;;;;1.90;0.60;;;;;;;12.79;61.88;99295.56;5092619;28;20119;-65
2023/04/13 11:32:38;;;;;;;1.30;0.63;;;;;;;12.60;59.68;99284.72;5092720;28;20077;-64
2023/04/13 11:35:06;;;;;;;2.50;0.90;;;;;;;12.36;59.29;99283.53;5092723;28;20060;-65
2023/04/13 11:37:40;;;;;;;1.95;0.90;;;;;;;12.37;61.10;99282.50;5092498;28;20131;-65
2023/04/13 11:40:13;;;;;;;1.92;0.73;;;;;;;13.42;65.05;99283.16;5092721;28;20234;-64
2023/04/13 11:42:44;;;;;;;3.53;0.90;;;;;;;14.39;58.21;99268.38;5092635;28;20043;-65
2023/04/13 11:45:12;;;;;;;1.23;0.50;;;;;;;15.14;53.96;99272.72;5092492;28;20040;-65
2023/04/13 11:47:37;;;;;;;4.47;0.70;;;;;;;15.97;55.77;99282.69;5092252;28;20036;-66
2023/04/13 11:50:04;;;;;;;1.55;0.88;;;;;;;15.18;50.81;99285.44;5092595;28;20519;-65
2023/04/13 11:52:32;;;;;;;0.57;0.45;;;;;;;14.78;52.96;99279.75;5092434;28;20400;-65
2023/04/13 11:54:59;;;;;;;1.55;0.65;;;;;;;15.39;52.12;99281.47;5092614;28;20047;-65
2023/04/13 11:57:25;;;;;;;1.92;0.60;;;;;;;15.83;53.31;99267.84;5092077;28;20193;-65
2023/04/13 11:59:51;;;;;;;2.05;0.55;;;;;;;15.68;49.83;99265.59;5092380;28;20044;-65
2023/04/13 12:02:26;;;;;;;2.72;0.60;;;;;;;15.10;52.17;99272.34;5092327;28;20036;-65
2023/04/13 12:04:52;;;;;;;2.22;0.50;;;;;;;15.07;49.91;99272.81;5092274;28;20071;-66
2023/04/13 12:07:18;;;;;;;1.08;0.40;;;;;;;14.79;50.52;99272.53;5091895;28;20047;-67
2023/04/13 12:09:49;;;;;;;1.38;0.80;;;;;;;14.33;51.23;99279.97;5092296;28;20405;-65
2023/04/13 12:12:23;;;;;;;1.23;0.65;;;;;;;14.03;51.81;99287.06;5092053;28;20040;-65
2023/04/13 12:14:59;;;;;;;1.15;0.63;;;;;;;14.87;50.65;99269.56;5092269;28;20068;-66
2023/04/13 12:17:32;;;;;;;2.90;0.70;;;;;;;14.43;49.75;99273.31;5091843;28;20032;-65
2023/04/13 12:19:58;;;;;;;1.23;0.60;;;;;;;14.56;49.63;99262.50;5092059;28;20070;-65
2023/04/13 12:22:35;;;;;;;0.70;0.40;;;;;;;14.57;50.36;99264.94;5092102;28;20040;-65
2023/04/13 12:25:12;;;;;;;0.88;0.63;;;;;;;14.20;51.33;99274.75;5092126;28;20036;-66
2023/04/13 12:27:41;;;;;;;3.72;0.80;;;;;;;13.46;54.17;99276.34;5091689;28;20044;-65
2023/04/13 12:30:14;;;;;;;1.08;0.70;;;;;;;13.12;55.57;99269.53;5092095;28;20066;-65
2023/04/13 12:32:45;;;;;;;3.60;1.17;;;;;;;13.00;57.78;99292.59;5092013;28;20408;-65
2023/04/13 12:35:12;;;;;;;1.35;0.60;;;;;;;12.44;65.57;99293.97;5091832;28;20082;-64
2023/04/13 12:37:41;;;;;;;1.42;0.60;;;;;;;11.64;69.86;99295.81;5091688;28;20032;-64
2023/04/13 12:40:12;;;;;;;1.10;0.50;;;;;;;11.26;74.35;99297.38;5091979;28;20054;-65
2023/04/13 12:42:39;;;;;;;1.63;0.40;;;;;;;10.92;74.48;99293.75;5093080;28;20039;-64
2023/04/13 12:45:05;;;;;;;0.38;0.38;;;;;;;10.73;74.86;99287.31;5096119;28;20127;-65
2023/04/13 12:47:31;;;;;;;0.22;0.22;;;;;;;10.65;74.35;99298.13;5095595;28;20044;-65
2023/04/13 12:49:56;;;;;;;0.47;0.45;;;;;;;10.68;74.03;99291.59;5095768;28;20059;-65
2023/04/13 12:52:21;;;;;;;0.77;0.38;;;;;;;11.03;76.80;99293.19;5095736;28;20036;-65
2023/04/13 12:54:47;;;;;;;1.73;0.60;;;;;;;11.90;75.09;99276.38;5095750;28;20032;-64
2023/04/13 12:57:16;;;;;;;1.08;0.65;;;;;;;12.82;66.16;99282.59;5095357;28;20477;-65
2023/04/13 12:59:44;;;;;;;2.03;0.57;;;;;;;13.89;63.03;99280.16;5095770;28;20122;-65
2023/04/13 13:02:10;;;;;;;2.72;0.47;;;;;;;15.08;62.42;99260.22;5095658;28;20036;-65
2023/04/13 13:04:36;;;;;;;1.50;0.80;;;;;;;15.85;54.34;99263.06;5095573;28;20044;-66
2023/04/13 13:07:01;;;;;;;1.55;0.75;;;;;;;16.11;50.41;99254.56;5095288;28;20124;-66
2023/04/13 13:09:27;;;;;;;2.80;0.77;;;;;;;16.73;50.48;99251.38;5095394;28;20036;-65
2023/04/13 13:11:52;;;;;;;1.00;0.55;;;;;;;15.88;53.97;99249.97;5095399;28;20032;-65
2023/04/13 13:14:20;;;;;;;2.95;0.70;;;;;;;16.87;51.07;99255.44;5095372;28;20202;-66
2023/04/13 13:16:48;;;;;;;0.80;0.45;;;;;;;17.08;49.30;99249.44;5095141;28;20032;-65
2023/04/13 13:19:13;;;;;;;2.58;1.05;;;;;;;16.02;47.60;99247.91;5095143;28;20131;-65
2023/04/13 13:21:38;;;;;;;2.17;0.75;;;;;;;15.04;50.67;99250.97;5095278;28;20124;-64
2023/04/13 13:24:05;;;;;;;1.30;0.63;;;;;;;14.86;53.04;99255.31;5095316;28;20040;-64
2023/04/13 13:26:31;;;;;;;1.05;0.73;;;;;;;14.55;53.57;99250.13;5095189;28;20069;-65
2023/04/13 13:28:56;;;;;;;2.55;1.35;;;;;;;14.34;55.05;99262.03;5094909;28;20126;-65
2023/04/13 13:31:21;;;;;;;2.38;0.90;;;;;;;14.32;57.55;99256.09;5095176;28;20105;-65
2023/04/13 13:33:47;;;;;;;1.17;0.60;;;;;;;13.87;59.51;99261.66;5094994;28;20060;-63
2023/04/13 13:36:12;;;;;;;1.02;0.77;;;;;;;13.67;64.00;99266.34;5094955;28;20036;-64
2023/04/13 13:38:38;;;;;;;1.85;0.70;;;;;;;13.62;61.40;99261.63;5094965;28;20039;-67
2023/04/13 13:41:03;;;;;;;1.58;0.73;;;;;;;13.29;60.42;99267.19;5094993;28;20115;-67
2023/04/13 13:43:29;;;;;;;1.63;0.40;;;;;;;13.01;59.33;99268.31;5094833;28;20040;-64
2023/04/13 13:45:55;;;;;;;1.20;0.68;;;;;;;12.47;59.79;99271.41;5094807;28;20067;-65
2023/04/13 13:48:22;;;;;;;0.52;0.30;;;;;;;12.42;60.45;99260.50;5093115;28;20036;-64
2023/04/13 13:50:56;;;;;;;1.05;0.52;;;;;;;12.39;61.06;99261.75;5093792;28;20032;-64
2023/04/13 13:53:23;;;;;;;2.20;0.57;;;;;;;12.28;59.80;99261.56;5093155;28;20032;-65
2023/04/13 13:55:49;;;;;;;1.85;0.90;;;;;;;12.09;60.95;99264.06;5093281;28;20028;-65
2023/04/13 13:58:15;;;;;;;1.38;0.70;;;;;;;11.85;63.79;99270.00;5094329;28;20039;-65
2023/04/13 14:00:40;;;;;;;1.83;0.90;;;;;;;11.86;63.50;99276.97;5094540;28;20048;-65
2023/04/13 14:03:06;;;;;;;1.25;0.80;;;;;;;11.83;64.59;99275.56;5094457;28;20040;-65
2023/04/13 14:05:31;;;;;;;1.50;0.85;;;;;;;12.14;65.57;99269.59;5094409;28;20412;-64
2023/04/13 14:07:57;;;;;;;4.03;0.95;;;;;;;12.31;65.72;99264.63;5094121;28;20032;-66
2023/04/13 14:10:22;;;;;;;1.52;0.60;;;;;;;12.40;63.56;99252.72;5094434;28;20062;-64
2023/04/13 14:12:48;;;;;;;5.03;1.45;;;;;;;12.76;63.38;99262.88;5094234;28;20389;-65
2023/04/13 14:15:14;;;;;;;0.85;0.60;;;;;;;12.90;63.69;99260.97;5094198;28;20031;-65
2023/04/13 14:17:39;;;;;;;1.73;0.70;;;;;;;12.83;58.63;99265.50;5093851;28;20044;-65
2023/04/13 14:20:11;;;;;;;1.77;0.73;;;;;;;13.08;59.68;99260.28;5094323;28;20067;-65
2023/04/13 14:22:38;;;;;;;2.90;0.90;;;;;;;12.88;57.25;99262.22;5094260;28;20055;-64
2023/04/13 14:25:04;;;;;;;0.68;0.65;;;;;;;13.00;58.44;99257.84;5094043;28;20416;-65
2023/04/13 14:27:33;;;;;;;3.25;1.00;;;;;;;13.09;58.38;99261.91;5093572;28;20507;-64
2023/04/13 14:29:59;;;;;;;1.88;0.60;;;;;;;13.09;56.14;99255.75;5093909;28;20059;-65
2023/04/13 14:32:24;;;;;;;1.13;0.75;;;;;;;13.26;53.82;99260.44;5093750;28;20489;-64
2023/04/13 14:34:50;;;;;;;1.08;0.50;;;;;;;13.06;54.16;99245.50;5093889;28;20059;-65
2023/04/13 14:37:15;;;;;;;2.20;0.70;;;;;;;13.28;54.00;99257.53;5093467;28;20031;-65
2023/04/13 14:39:41;;;;;;;2.78;0.75;;;;;;;13.25;52.72;99258.78;5094316;28;20040;-64
2023/04/13 14:42:06;;;;;;;0.90;0.70;;;;;;;13.27;52.60;99258.56;5093739;28;20114;-64
2023/04/13 14:44:35;;;;;;;0.90;0.63;;;;;;;13.37;52.54;99252.75;5093661;28;20036;-64
2023/04/13 14:47:01;;;;;;;1.98;0.63;;;;;;;13.47;52.59;99256.59;5093269;28;20620;-65
2023/04/13 14:49:26;;;;;;;2.65;1.10;;;;;;;13.70;52.72;99265.91;5093658;28;20103;-65
2023/04/13 14:51:51;;;;;;;2.25;1.00;;;;;;;13.92;51.19;99256.47;5093461;28;20486;-65
2023/04/13 14:54:17;;;;;;;0.93;0.50;;;;;;;14.03;51.74;99263.78;5093525;28;20474;-63
2023/04/13 14:56:42;;;;;;;2.67;0.70;;;;;;;14.06;52.08;99262.53;5093353;28;20044;-63
2023/04/13 14:59:08;;;;;;;1.00;0.50;;;;;;;14.00;51.60;99263.41;5093692;28;20121;-64
2023/04/13 15:01:34;;;;;;;2.58;0.80;;;;;;;14.10;51.06;99253.03;5093567;28;20039;-65
2023/04/13 15:03:59;;;;;;;3.17;0.85;;;;;;;14.17;52.31;99256.47;5093673;28;20538;-65
2023/04/13 15:06:26;;;;;;;0.93;0.60;;;;;;;14.03;52.92;99257.63;5092430;28;20071;-66
2023/04/13 15:08:51;;;;;;;1.90;0.80;;;;;;;13.98;50.80;99249.41;5091537;28;20409;-65
2023/04/13 15:11:17;;;;;;;2.40;1.08;;;;;;;13.88;52.30;99260.59;5093059;28;20047;-65
2023/04/13 15:13:42;;;;;;;0.45;0.35;;;;;;;13.68;50.80;99263.44;5093095;28;20081;-65
2023/04/13 15:16:07;;;;;;;1.90;0.50;;;;;;;13.59;48.48;99264.75;5092847;28;20551;-65
2023/04/13 15:18:33;;;;;;;0.98;0.73;;;;;;;13.57;49.04;99269.50;5092979;28;20067;-65
2023/04/13 15:21:02;;;;;;;1.58;0.68;;;;;;;13.58;50.30;99277.31;5093079;28;20039;-66
2023/04/13 15:23:27;;;;;;;1.85;0.65;;;;;;;13.49;50.58;99272.41;5092966;28;20040;-64
2023/04/13 15:25:53;;;;;;;2.10;0.50;;;;;;;13.43;51.99;99266.09;5092788;28;20040;-65
2023/04/13 15:28:18;;;;;;;1.00;0.80;;;;;;;13.35;51.76;99271.69;5092610;28;20492;-65
2023/04/13 15:30:44;;;;;;;2.55;0.68;;;;;;;13.44;52.95;99269.59;5092766;28;20601;-65
2023/04/13 15:33:09;;;;;;;1.15;0.80;;;;;;;13.33;54.43;99272.94;5092855;28;20508;-66
2023/04/13 15:35:35;;;;;;;1.58;0.93;;;;;;;13.16;55.65;99267.22;5092783;28;20059;-65
2023/04/13 15:38:08;;;;;;;2.72;1.08;;;;;;;12.96;56.62;99283.34;5092506;28;20086;-65
2023/04/13 15:40:34;;;;;;;4.40;1.15;;;;;;;12.87;58.17;99282.78;5092692;28;20044;-65
2023/04/13 15:43:00;;;;;;;3.45;1.10;;;;;;;12.75;64.48;99301.31;5091444;28;20035;-65
2023/04/13 15:45:25;;;;;;;3.35;0.88;;;;;;;12.79;68.88;99316.94;5092542;28;20515;-64
2023/04/13 15:47:51;;;;;;;2.03;0.85;;;;;;;12.39;71.22;99315.19;5092242;28;20085;-65
2023/04/13 15:50:18;;;;;;;1.60;0.93;;;;;;;11.55;77.45;99318.38;5092301;28;20032;-64
2023/04/13 15:52:44;;;;;;;1.65;0.52;;;;;;;11.22;79.32;99320.97;5092397;28;20400;-64
2023/04/13 15:55:10;;;;;;;1.30;0.60;;;;;;;10.98;79.76;99316.94;5092229;28;20035;-64
2023/04/13 15:57:36;;;;;;;2.22;0.82;;;;;;;10.43;80.47;99325.84;5092096;28;20047;-65
2023/04/13 16:00:03;;;;;;;0.82;0.57;;;;;;;10.41;80.61;99323.38;5092268;28;20084;-65
2023/04/13 16:02:30;;;;;;;1.92;0.65;;;;;;;10.39;82.23;99325.44;5092295;28;20574;-65